createdAt,value
2022-12-25T00:00:22.946Z,8.90
2022-12-25T00:03:12.188Z,11.00
2022-12-25T00:05:59.829Z,11.30
2022-12-25T00:08:47.967Z,15.63
2022-12-25T00:11:35.624Z,15.48
2022-12-25T00:14:23.215Z,14.13
2022-12-25T00:17:10.543Z,14.30
2022-12-25T00:19:59.217Z,13.73
2022-12-25T00:22:46.787Z,11.70
2022-12-25T00:25:34.429Z,11.57
2022-12-25T00:28:23.648Z,12.90
2022-12-25T00:31:13.388Z,13.48
2022-12-25T00:34:00.857Z,12.55
2022-12-25T00:36:51.417Z,12.90
2022-12-25T00:39:38.848Z,12.82
2022-12-25T00:42:28.530Z,13.70
2022-12-25T00:45:16.055Z,13.15
2022-12-25T00:48:03.439Z,12.23
2022-12-25T00:50:55.041Z,12.32
2022-12-25T00:53:43.861Z,11.63
2022-12-25T00:56:31.495Z,10.25
2022-12-25T00:59:19.185Z,8.13
2022-12-25T01:02:25.371Z,7.97
2022-12-25T01:05:13.126Z,6.73
2022-12-25T01:08:00.510Z,6.97
2022-12-25T01:10:55.840Z,6.35
2022-12-25T01:13:43.487Z,6.20
2022-12-25T01:16:31.500Z,6.93
2022-12-25T01:19:19.083Z,5.95
2022-12-25T01:22:06.385Z,6.18
2022-12-25T01:24:53.799Z,5.25
2022-12-25T01:27:43.580Z,6.15
2022-12-25T01:30:31.626Z,4.97
2022-12-25T01:33:19.241Z,4.50
2022-12-25T01:36:13.152Z,4.80
2022-12-25T01:39:00.653Z,5.15
2022-12-25T01:41:48.542Z,4.88
2022-12-25T01:45:15.441Z,5.25
2022-12-25T01:48:07.371Z,5.35
2022-12-25T01:50:57.407Z,4.75
2022-12-25T01:53:45.159Z,5.78
2022-12-25T01:56:34.217Z,6.35
2022-12-25T01:59:24.595Z,6.38
2022-12-25T02:02:13.260Z,4.55
2022-12-25T02:05:08.270Z,4.97
2022-12-25T02:07:56.914Z,4.82
2022-12-25T02:10:44.886Z,6.00
2022-12-25T02:13:32.896Z,5.78
2022-12-25T02:16:23.146Z,5.55
2022-12-25T02:19:24.108Z,4.95
2022-12-25T02:22:22.992Z,6.10
2022-12-25T02:25:25.381Z,5.25
2022-12-25T02:28:22.255Z,4.82
2022-12-25T02:31:16.313Z,5.22
2022-12-25T02:34:10.747Z,4.72
2022-12-25T02:37:06.269Z,4.45
2022-12-25T02:39:59.841Z,4.70
2022-12-25T02:43:09.870Z,4.45
2022-12-25T02:46:19.909Z,3.95
2022-12-25T02:49:28.755Z,4.50
2022-12-25T02:52:37.670Z,3.72
2022-12-25T02:55:49.141Z,3.90
2022-12-25T02:58:57.992Z,3.70
2022-12-25T03:02:05.009Z,3.38
2022-12-25T03:05:11.342Z,4.18
2022-12-25T03:08:03.677Z,3.30
2022-12-25T03:11:14.123Z,3.50
2022-12-25T03:14:18.181Z,3.55
2022-12-25T03:17:07.506Z,4.07
2022-12-25T03:20:12.879Z,4.13
2022-12-25T03:23:17.829Z,4.45
2022-12-25T03:26:31.829Z,4.25
2022-12-25T03:29:33.261Z,3.60
2022-12-25T03:32:31.033Z,4.18
2022-12-25T03:35:23.518Z,4.38
2022-12-25T03:38:46.333Z,4.40
2022-12-25T03:42:00.157Z,4.32
2022-12-25T03:45:16.928Z,3.75
2022-12-25T03:48:25.116Z,3.67
2022-12-25T03:51:32.217Z,3.80
2022-12-25T03:54:41.725Z,3.67
2022-12-25T03:57:46.478Z,3.38
2022-12-25T04:00:51.213Z,4.28
2022-12-25T04:03:57.165Z,4.40
2022-12-25T04:07:02.163Z,4.60
2022-12-25T04:10:06.776Z,3.63
2022-12-25T04:13:11.848Z,5.93
2022-12-25T04:16:16.578Z,4.68
2022-12-25T04:19:24.212Z,5.38
2022-12-25T04:22:28.759Z,4.50
2022-12-25T04:25:33.921Z,4.35
2022-12-25T04:28:38.275Z,4.47
2022-12-25T04:31:44.111Z,4.93
2022-12-25T04:34:50.530Z,5.00
2022-12-25T04:37:38.375Z,5.57
2022-12-25T04:40:25.982Z,4.78
2022-12-25T04:43:13.631Z,4.75
2022-12-25T04:46:03.150Z,5.18
2022-12-25T04:48:50.867Z,5.50
2022-12-25T04:51:39.700Z,4.50
2022-12-25T04:54:27.385Z,5.38
2022-12-25T04:57:14.673Z,5.30
2022-12-25T05:00:02.199Z,5.72
2022-12-25T05:02:49.724Z,7.57
2022-12-25T05:05:41.544Z,6.55
2022-12-25T05:08:32.352Z,7.82
2022-12-25T05:11:19.948Z,9.80
2022-12-25T05:14:07.401Z,9.02
2022-12-25T05:16:54.839Z,6.90
2022-12-25T05:19:42.357Z,7.60
2022-12-25T05:22:30.061Z,7.68
2022-12-25T05:25:19.422Z,8.73
2022-12-25T05:28:06.903Z,6.65
2022-12-25T05:30:57.712Z,6.10
2022-12-25T05:33:45.519Z,8.45
2022-12-25T05:36:33.232Z,6.03
2022-12-25T05:39:20.870Z,6.80
2022-12-25T05:42:09.546Z,6.25
2022-12-25T05:44:57.094Z,5.70
2022-12-25T05:47:44.483Z,6.25
2022-12-25T05:50:31.935Z,5.88
2022-12-25T05:53:25.005Z,5.43
2022-12-25T05:56:12.515Z,6.45
2022-12-25T05:59:01.716Z,5.40
2022-12-25T06:01:49.241Z,5.28
2022-12-25T06:04:37.646Z,4.90
2022-12-25T06:07:25.057Z,4.40
2022-12-25T06:10:12.618Z,4.63
2022-12-25T06:13:00.863Z,5.80
2022-12-25T06:15:49.940Z,5.35
2022-12-25T06:18:38.059Z,4.95
2022-12-25T06:21:25.721Z,4.57
2022-12-25T06:24:19.182Z,5.20
2022-12-25T06:27:08.905Z,5.32
2022-12-25T06:29:56.756Z,4.32
2022-12-25T06:32:45.778Z,4.65
2022-12-25T06:35:33.583Z,5.10
2022-12-25T06:38:20.909Z,6.50
2022-12-25T06:41:11.765Z,7.38
2022-12-25T06:44:00.967Z,6.80
2022-12-25T06:46:48.672Z,6.15
2022-12-25T06:49:37.516Z,5.97
2022-12-25T06:52:24.908Z,6.93
2022-12-25T06:55:12.211Z,6.93
2022-12-25T06:57:59.862Z,8.32
2022-12-25T07:00:47.640Z,6.75
2022-12-25T07:03:35.023Z,7.30
2022-12-25T07:06:24.095Z,6.78
2022-12-25T07:09:11.536Z,8.05
2022-12-25T07:12:04.533Z,7.03
2022-12-25T07:14:54.653Z,9.25
2022-12-25T07:17:42.453Z,7.20
2022-12-25T07:20:30.096Z,7.60
2022-12-25T07:23:18.903Z,7.85
2022-12-25T07:26:06.915Z,8.82
2022-12-25T07:28:54.426Z,8.68
2022-12-25T07:31:41.930Z,9.38
2022-12-25T07:34:29.611Z,8.57
2022-12-25T07:37:16.919Z,8.75
2022-12-25T07:40:06.905Z,7.40
2022-12-25T07:42:54.527Z,8.35
2022-12-25T07:45:41.922Z,7.85
2022-12-25T07:48:30.191Z,7.15
2022-12-25T07:51:18.184Z,7.05
2022-12-25T07:54:05.908Z,7.85
2022-12-25T07:56:55.062Z,7.72
2022-12-25T07:59:42.592Z,8.88
2022-12-25T08:02:30.277Z,8.38
2022-12-25T08:05:18.246Z,9.52
2022-12-25T08:08:05.732Z,8.73
2022-12-25T08:10:53.141Z,8.68
2022-12-25T08:13:42.621Z,8.48
2022-12-25T08:16:30.256Z,11.07
2022-12-25T08:19:17.811Z,9.25
2022-12-25T08:22:05.389Z,10.80
2022-12-25T08:24:52.687Z,11.88
2022-12-25T08:27:39.898Z,11.93
2022-12-25T08:30:29.246Z,14.45
2022-12-25T08:33:16.808Z,14.73
2022-12-25T08:36:05.015Z,16.40
2022-12-25T08:38:57.017Z,19.42
2022-12-25T08:41:47.952Z,20.20
2022-12-25T08:44:35.356Z,24.20
2022-12-25T08:47:24.602Z,21.95
2022-12-25T08:50:14.283Z,26.48
2022-12-25T08:53:01.804Z,28.50
2022-12-25T08:55:49.426Z,28.05
2022-12-25T08:58:37.304Z,28.13
2022-12-25T09:01:24.900Z,30.50
2022-12-25T09:04:14.374Z,43.08
2022-12-25T09:07:02.734Z,34.17
2022-12-25T09:09:50.004Z,34.15
2022-12-25T09:12:37.476Z,33.65
2022-12-25T09:15:24.946Z,33.92
2022-12-25T09:18:13.154Z,32.42
2022-12-25T09:21:03.724Z,30.20
2022-12-25T09:23:51.218Z,32.55
2022-12-25T09:26:39.193Z,29.05
2022-12-25T09:29:26.934Z,31.50
2022-12-25T09:32:14.428Z,31.75
2022-12-25T09:35:02.013Z,34.05
2022-12-25T09:37:51.017Z,28.65
2022-12-25T09:40:38.431Z,28.20
2022-12-25T09:43:27.889Z,29.70
2022-12-25T09:46:18.375Z,28.45
2022-12-25T09:49:13.050Z,28.17
2022-12-25T09:52:04.831Z,27.63
2022-12-25T09:54:58.895Z,28.35
2022-12-25T09:57:46.989Z,27.90
2022-12-25T10:00:40.902Z,25.10
2022-12-25T10:03:43.625Z,22.77
2022-12-25T10:06:41.912Z,20.90
2022-12-25T10:09:47.528Z,19.10
2022-12-25T10:12:50.058Z,21.58
2022-12-25T10:15:48.059Z,18.83
2022-12-25T10:18:57.100Z,16.60
2022-12-25T10:21:44.856Z,16.30
2022-12-25T10:24:37.158Z,15.68
2022-12-25T10:27:32.513Z,17.10
2022-12-25T10:30:23.607Z,16.73
2022-12-25T10:33:17.130Z,15.68
2022-12-25T10:36:06.917Z,16.25
2022-12-25T10:38:55.026Z,17.13
2022-12-25T10:42:06.796Z,16.65
2022-12-25T10:44:57.775Z,15.70
2022-12-25T10:47:47.646Z,15.18
2022-12-25T10:50:44.190Z,15.85
2022-12-25T10:53:40.141Z,13.93
2022-12-25T10:56:27.651Z,14.80
2022-12-25T10:59:14.953Z,13.43
2022-12-25T11:02:15.225Z,13.00
2022-12-25T11:05:07.511Z,13.02
2022-12-25T11:07:56.184Z,12.05
2022-12-25T11:10:44.232Z,12.57
2022-12-25T11:13:32.810Z,11.75
2022-12-25T11:16:29.067Z,10.63
2022-12-25T11:19:29.863Z,10.05
2022-12-25T11:22:19.967Z,10.93
2022-12-25T11:25:16.208Z,9.95
2022-12-25T11:28:06.953Z,10.07
2022-12-25T11:30:58.543Z,9.02
2022-12-25T11:33:51.898Z,8.32
2022-12-25T11:36:46.047Z,8.27
2022-12-25T11:39:37.486Z,8.63
2022-12-25T11:42:28.082Z,7.60
2022-12-25T11:45:19.765Z,8.13
2022-12-25T11:48:12.486Z,8.23
2022-12-25T11:51:03.424Z,9.00
2022-12-25T11:53:54.886Z,8.18
2022-12-25T11:56:44.305Z,8.55
2022-12-25T11:59:36.957Z,8.57
2022-12-25T12:02:33.953Z,10.10
2022-12-25T12:05:25.679Z,9.40
2022-12-25T12:08:14.453Z,9.27
2022-12-25T12:11:18.061Z,9.32
2022-12-25T12:14:24.273Z,9.15
2022-12-25T12:17:12.991Z,9.95
2022-12-25T12:20:10.997Z,8.45
2022-12-25T12:23:00.386Z,8.82
2022-12-25T12:25:50.062Z,9.57
2022-12-25T12:28:45.917Z,7.93
2022-12-25T12:31:43.682Z,8.05
2022-12-25T12:34:43.531Z,7.65
2022-12-25T12:37:36.440Z,9.07
2022-12-25T12:40:30.336Z,8.70
2022-12-25T12:43:31.586Z,7.93
2022-12-25T12:46:28.004Z,8.25
